TimeMDT,TemperatureF,Dew PointF,Humidity,Sea Level PressureIn,VisibilityMPH,Wind Direction,Wind SpeedMPH,Gust SpeedMPH,PrecipitationIn,Events,Conditions,WindDirDegrees,DateUTC
12:54 AM,61.0,52.0,72,29.86,10.0,East,6.9,-,N/A,,Scattered Clouds,80,2013-07-13 06:54:00
1:54 AM,57.0,52.0,83,29.87,10.0,SSE,8.1,-,N/A,,Clear,150,2013-07-13 07:54:00
2:54 AM,55.9,51.1,84,29.84,10.0,SE,6.9,-,N/A,,Clear,130,2013-07-13 08:54:00
3:54 AM,55.9,50.0,80,29.84,10.0,East,9.2,-,N/A,,Clear,100,2013-07-13 09:54:00
4:54 AM,54.0,48.9,83,29.87,10.0,ESE,5.8,-,N/A,,Clear,110,2013-07-13 10:54:00
5:54 AM,55.0,48.9,80,29.89,10.0,NW,4.6,-,N/A,,Clear,310,2013-07-13 11:54:00
6:54 AM,57.9,50.0,75,29.91,10.0,WSW,5.8,-,N/A,,Clear,240,2013-07-13 12:54:00
7:54 AM,60.1,51.1,72,29.96,10.0,WNW,10.4,-,N/A,,Clear,290,2013-07-13 13:54:00
8:54 AM,62.1,51.1,67,29.98,10.0,WNW,9.2,-,N/A,,Clear,300,2013-07-13 14:54:00
9:54 AM,63.0,51.1,65,29.99,10.0,NW,15.0,-,N/A,,Partly Cloudy,310,2013-07-13 15:54:00
10:54 AM,66.9,45.0,45,30.01,10.0,WNW,15.0,21.9,N/A,,Clear,300,2013-07-13 16:54:00
11:54 AM,69.1,44.1,40,30.01,10.0,NW,13.8,24.2,N/A,,Clear,310,2013-07-13 17:54:00
12:54 PM,70.0,45.0,41,30.02,10.0,WNW,11.5,20.7,N/A,,Clear,300,2013-07-13 18:54:00
1:54 PM,72.0,45.0,38,30.03,10.0,NW,10.4,18.4,N/A,,Clear,320,2013-07-13 19:54:00
2:54 PM,73.9,44.1,34,30.04,10.0,North,16.1,20.7,N/A,,Clear,350,2013-07-13 20:54:00
3:54 PM,73.0,43.0,34,30.05,10.0,North,17.3,23.0,N/A,,Clear,360,2013-07-13 21:54:00
4:54 PM,73.0,44.1,35,30.06,10.0,North,12.7,-,N/A,,Clear,350,2013-07-13 22:54:00
5:54 PM,73.0,44.1,35,30.07,10.0,NNW,8.1,-,N/A,,Clear,340,2013-07-13 23:54:00
6:54 PM,71.1,45.0,39,30.09,10.0,NNE,10.4,17.3,N/A,,Scattered Clouds,20,2013-07-14 00:54:00
7:54 PM,66.9,44.1,44,30.11,10.0,North,10.4,-,N/A,,Overcast,10,2013-07-14 01:54:00
8:54 PM,64.9,42.1,43,30.13,10.0,NE,6.9,-,N/A,,Overcast,40,2013-07-14 02:54:00
9:54 PM,62.1,42.1,48,30.16,10.0,East,8.1,-,N/A,,Mostly Cloudy,100,2013-07-14 03:54:00
10:54 PM,60.1,45.0,57,30.17,10.0,SE,8.1,-,N/A,,Mostly Cloudy,130,2013-07-14 04:54:00
11:54 PM,59.0,44.1,58,30.19,10.0,ESE,9.2,-,N/A,,Mostly Cloudy,110,2013-07-14 05:54:00